createdAt,value
2023-04-02T00:01:02.438Z,83.71
2023-04-02T00:02:22.265Z,83.78
2023-04-02T00:03:24.141Z,83.81
2023-04-02T00:04:25.880Z,83.88
2023-04-02T00:05:29.143Z,83.75
2023-04-02T00:06:30.837Z,84.57
2023-04-02T00:07:32.634Z,84.56
2023-04-02T00:08:39.833Z,84.35
2023-04-02T00:09:42.007Z,84.53
2023-04-02T00:11:02.524Z,84.65
2023-04-02T00:12:16.725Z,84.50
2023-04-02T00:13:18.388Z,84.50
2023-04-02T00:14:27.653Z,84.39
2023-04-02T00:15:30.215Z,84.04
2023-04-02T00:16:32.579Z,83.72
2023-04-02T00:17:34.421Z,83.47
2023-04-02T00:18:44.333Z,83.30
2023-04-02T00:19:56.972Z,83.21
2023-04-02T00:21:14.691Z,83.24
2023-04-02T00:22:25.356Z,82.70
2023-04-02T00:23:27.324Z,82.43
2023-04-02T00:24:29.128Z,82.56
2023-04-02T00:25:36.060Z,82.51
2023-04-02T00:26:43.006Z,82.44
2023-04-02T00:27:44.719Z,82.17
2023-04-02T00:28:46.718Z,82.04
2023-04-02T00:29:59.152Z,81.62
2023-04-02T00:31:01.025Z,81.95
2023-04-02T00:32:02.950Z,81.79
2023-04-02T00:33:04.795Z,81.71
2023-04-02T00:34:09.106Z,81.35
2023-04-02T00:35:18.105Z,81.15
2023-04-02T00:36:22.373Z,81.14
2023-04-02T00:37:27.490Z,80.91
2023-04-02T00:38:35.404Z,80.62
2023-04-02T00:39:39.533Z,80.58
2023-04-02T00:40:42.681Z,81.08
2023-04-02T00:41:45.287Z,81.54
2023-04-02T00:42:48.814Z,81.24
2023-04-02T00:43:52.212Z,81.53
2023-04-02T00:44:54.637Z,81.51
2023-04-02T00:46:02.463Z,81.55
2023-04-02T00:47:32.317Z,81.71
2023-04-02T00:48:44.541Z,82.03
2023-04-02T00:49:47.304Z,82.24
2023-04-02T00:50:50.889Z,82.29
2023-04-02T00:51:58.006Z,82.07
2023-04-02T00:53:04.607Z,81.90
2023-04-02T00:54:12.106Z,81.78
2023-04-02T00:55:31.116Z,81.79
2023-04-02T00:56:40.885Z,81.37
2023-04-02T00:57:43.594Z,81.53
2023-04-02T00:58:50.627Z,81.35
2023-04-02T00:59:58.479Z,81.55
2023-04-02T01:01:01.152Z,81.33
2023-04-02T01:02:14.974Z,81.22
2023-04-02T01:03:16.923Z,81.02
2023-04-02T01:04:35.507Z,80.97
2023-04-02T01:05:37.582Z,81.10
2023-04-02T01:06:39.525Z,81.13
2023-04-02T01:07:59.523Z,81.23
2023-04-02T01:09:27.337Z,81.37
2023-04-02T01:10:44.400Z,81.45
2023-04-02T01:12:00.106Z,81.54
2023-04-02T01:13:20.389Z,81.28
2023-04-02T01:14:39.789Z,80.94
2023-04-02T01:15:47.752Z,81.00
2023-04-02T01:17:07.890Z,80.99
2023-04-02T01:18:35.446Z,80.76
2023-04-02T01:20:08.304Z,80.70
2023-04-02T01:23:30.017Z,80.61
2023-04-02T01:24:33.854Z,80.52
2023-04-02T01:25:38.612Z,80.67
2023-04-02T01:26:47.245Z,80.84
2023-04-02T01:27:55.667Z,80.61
2023-04-02T01:29:05.571Z,80.61
2023-04-02T01:30:09.463Z,80.79
2023-04-02T01:31:12.000Z,80.79
2023-04-02T01:32:17.061Z,80.82
2023-04-02T01:33:22.673Z,80.89
2023-04-02T01:34:26.865Z,81.32
2023-04-02T01:35:34.575Z,81.40
2023-04-02T01:36:57.767Z,81.61
2023-04-02T01:38:22.429Z,81.75
2023-04-02T01:39:45.323Z,81.73
2023-04-02T01:40:52.737Z,81.35
2023-04-02T01:42:06.117Z,81.50
2023-04-02T01:43:42.421Z,81.80
2023-04-02T01:44:51.060Z,81.79
2023-04-02T01:45:53.085Z,81.78
2023-04-02T01:46:54.893Z,81.76
2023-04-02T01:47:57.175Z,81.17
2023-04-02T01:49:02.994Z,80.93
2023-04-02T01:50:19.754Z,80.89
2023-04-02T01:51:33.471Z,80.67
2023-04-02T01:52:39.672Z,80.64
2023-04-02T01:53:41.432Z,80.83
2023-04-02T01:54:43.337Z,80.51
2023-04-02T01:55:57.605Z,80.55
2023-04-02T01:56:59.425Z,80.07
2023-04-02T01:58:02.391Z,80.40
2023-04-02T01:59:04.744Z,80.35
2023-04-02T02:00:07.455Z,80.42
2023-04-02T02:01:15.913Z,80.48
2023-04-02T02:02:17.900Z,81.00
2023-04-02T02:03:20.987Z,81.17
2023-04-02T02:04:23.004Z,81.19
2023-04-02T02:05:24.845Z,81.40
2023-04-02T02:06:27.141Z,81.57
2023-04-02T02:07:29.629Z,81.46
2023-04-02T02:08:37.175Z,81.62
2023-04-02T02:09:39.170Z,81.15
2023-04-02T02:10:41.230Z,81.39
2023-04-02T02:11:43.171Z,81.23
2023-04-02T02:12:45.667Z,81.25
2023-04-02T02:13:53.187Z,81.47
2023-04-02T02:14:54.894Z,81.49
2023-04-02T02:16:00.644Z,81.67
2023-04-02T02:17:05.250Z,81.54
2023-04-02T02:18:11.242Z,81.44
2023-04-02T02:19:29.691Z,81.15
2023-04-02T02:20:32.787Z,81.15
2023-04-02T02:21:44.708Z,81.32
2023-04-02T02:22:48.594Z,81.54
2023-04-02T02:23:50.531Z,81.77
2023-04-02T02:24:52.795Z,81.87
2023-04-02T02:25:54.886Z,81.96
2023-04-02T02:27:07.450Z,81.98
2023-04-02T02:28:23.819Z,81.91
2023-04-02T02:29:28.546Z,81.71
2023-04-02T02:30:44.936Z,81.98
2023-04-02T02:31:52.660Z,82.78
2023-04-02T02:33:12.444Z,82.78
2023-04-02T02:34:22.864Z,82.73
2023-04-02T02:35:49.343Z,82.55
2023-04-02T02:37:05.689Z,82.42
2023-04-02T02:38:32.275Z,82.01
2023-04-02T02:39:46.088Z,81.76
2023-04-02T02:40:50.646Z,81.81
2023-04-02T02:42:08.543Z,81.77
2023-04-02T02:43:14.742Z,81.55
2023-04-02T02:44:22.846Z,81.55
2023-04-02T02:45:28.196Z,81.55
2023-04-02T02:46:32.535Z,81.56
2023-04-02T02:47:38.536Z,81.69
2023-04-02T02:48:42.741Z,81.52
2023-04-02T02:49:51.303Z,81.31
2023-04-02T02:50:54.311Z,81.42
2023-04-02T02:52:01.736Z,81.47
2023-04-02T02:53:07.639Z,81.32
2023-04-02T02:54:09.754Z,81.24
2023-04-02T02:55:16.582Z,81.46
2023-04-02T02:56:22.310Z,81.20
2023-04-02T02:57:29.949Z,81.23
2023-04-02T02:58:34.350Z,81.26
2023-04-02T02:59:37.356Z,80.90
2023-04-02T03:00:39.662Z,81.18
2023-04-02T03:01:43.449Z,81.36
2023-04-02T03:02:46.366Z,81.53
2023-04-02T03:03:52.547Z,81.84
2023-04-02T03:04:56.128Z,81.75
2023-04-02T03:06:04.308Z,82.15
2023-04-02T03:07:08.710Z,82.26
2023-04-02T03:08:19.399Z,82.43
2023-04-02T03:10:03.080Z,82.56
2023-04-02T03:11:10.560Z,83.07
2023-04-02T03:12:33.730Z,83.33
2023-04-02T03:13:38.760Z,83.65
2023-04-02T03:15:05.406Z,83.52
2023-04-02T03:16:31.216Z,83.65
2023-04-02T03:17:56.047Z,83.64
2023-04-02T03:19:38.628Z,83.66
2023-04-02T03:21:00.730Z,83.42
2023-04-02T03:22:17.087Z,83.35
2023-04-02T03:23:26.835Z,83.31
2023-04-02T03:24:43.549Z,83.18
2023-04-02T03:25:48.270Z,82.78
2023-04-02T03:26:57.706Z,82.87
2023-04-02T03:28:06.731Z,82.59
2023-04-02T03:29:19.213Z,82.83
2023-04-02T03:30:29.693Z,82.12
2023-04-02T03:31:44.991Z,81.97
2023-04-02T03:32:49.324Z,82.04
2023-04-02T03:34:08.982Z,82.05
2023-04-02T03:35:21.099Z,81.91
2023-04-02T03:36:30.897Z,81.56
2023-04-02T03:37:44.022Z,81.73
2023-04-02T03:39:08.202Z,81.64
2023-04-02T03:40:21.224Z,81.34
2023-04-02T03:41:33.353Z,81.15
2023-04-02T03:42:49.054Z,81.13
2023-04-02T03:43:58.610Z,81.17
2023-04-02T03:45:12.330Z,81.41
2023-04-02T03:46:26.341Z,81.85
2023-04-02T03:47:38.706Z,81.71
2023-04-02T03:48:53.058Z,81.30
2023-04-02T03:50:04.298Z,81.19
2023-04-02T03:51:20.169Z,81.00
2023-04-02T03:52:29.609Z,80.79
2023-04-02T03:53:32.271Z,80.72
2023-04-02T03:54:34.299Z,81.05
2023-04-02T03:55:39.057Z,81.48
2023-04-02T03:56:41.032Z,81.14
2023-04-02T03:58:11.941Z,81.37
2023-04-02T03:59:18.368Z,81.16
2023-04-02T04:00:27.309Z,81.22
2023-04-02T04:01:36.300Z,81.13
2023-04-02T04:02:52.878Z,81.27
2023-04-02T04:03:57.651Z,81.98
2023-04-02T04:05:01.055Z,82.85
2023-04-02T04:06:10.142Z,83.18
2023-04-02T04:07:21.346Z,83.23
2023-04-02T04:08:33.143Z,83.28
2023-04-02T04:09:42.344Z,83.10
2023-04-02T04:10:44.301Z,83.27
2023-04-02T04:11:50.144Z,83.52
2023-04-02T04:12:55.895Z,83.45
2023-04-02T04:14:13.815Z,83.28
2023-04-02T04:15:25.013Z,83.47
2023-04-02T04:16:32.078Z,83.50
2023-04-02T04:18:01.364Z,83.54
2023-04-02T04:19:28.712Z,83.06
2023-04-02T04:20:53.142Z,82.79
2023-04-02T04:22:15.249Z,82.27
2023-04-02T04:23:38.400Z,81.74
2023-04-02T04:24:40.293Z,80.84
2023-04-02T04:25:42.033Z,80.32
2023-04-02T04:26:43.635Z,80.30
2023-04-02T04:27:53.990Z,80.34
2023-04-02T04:29:17.567Z,80.55
2023-04-02T04:30:52.281Z,80.23
2023-04-02T04:31:54.811Z,80.06
2023-04-02T04:33:05.174Z,79.86
2023-04-02T04:34:13.721Z,80.21
2023-04-02T04:35:24.359Z,80.58
2023-04-02T04:36:30.233Z,81.12
2023-04-02T04:37:40.975Z,81.08
2023-04-02T04:38:49.532Z,80.93
2023-04-02T04:40:02.316Z,81.10
2023-04-02T04:41:15.122Z,81.25
2023-04-02T04:42:30.935Z,81.53
2023-04-02T04:43:43.080Z,81.33
2023-04-02T04:44:53.701Z,81.46
2023-04-02T04:46:18.937Z,81.08
2023-04-02T04:47:29.217Z,81.05
2023-04-02T04:48:37.010Z,81.01
2023-04-02T04:49:54.218Z,81.19
2023-04-02T04:51:05.957Z,81.38
2023-04-02T04:52:28.747Z,81.13
2023-04-02T04:53:30.808Z,81.06
2023-04-02T04:54:32.510Z,80.80
2023-04-02T04:55:39.653Z,80.45
2023-04-02T04:56:47.451Z,80.05
2023-04-02T04:57:51.157Z,79.78
2023-04-02T04:59:12.905Z,79.67
2023-04-02T05:00:34.752Z,80.13
2023-04-02T05:01:46.651Z,80.67
2023-04-02T05:03:26.283Z,80.85
2023-04-02T05:04:40.670Z,80.57
2023-04-02T05:05:42.802Z,80.58
2023-04-02T05:07:04.910Z,80.74
2023-04-02T05:08:19.580Z,80.82
2023-04-02T05:09:30.328Z,80.73
2023-04-02T05:10:42.599Z,80.71
2023-04-02T05:12:00.156Z,80.08
2023-04-02T05:13:17.143Z,79.60
2023-04-02T05:14:27.136Z,79.56
2023-04-02T05:15:47.477Z,79.30
2023-04-02T05:17:20.853Z,79.27
2023-04-02T05:18:25.196Z,79.33
2023-04-02T05:19:51.893Z,78.94
2023-04-02T05:21:49.237Z,78.92
2023-04-02T05:22:57.554Z,78.98
2023-04-02T05:24:19.561Z,78.50
2023-04-02T05:25:30.181Z,78.21
2023-04-02T05:26:43.100Z,77.88
2023-04-02T05:28:17.822Z,77.14
2023-04-02T05:29:25.016Z,76.80
2023-04-02T05:30:29.354Z,76.20
2023-04-02T05:31:57.090Z,75.83
2023-04-02T05:33:05.701Z,75.50
2023-04-02T05:34:07.830Z,75.49
2023-04-02T05:35:17.413Z,75.10
2023-04-02T05:36:28.055Z,74.73
2023-04-02T05:37:30.961Z,74.73
2023-04-02T05:38:35.981Z,74.97
2023-04-02T05:39:37.773Z,75.54
2023-04-02T05:40:45.873Z,76.02
2023-04-02T05:41:47.670Z,76.08
2023-04-02T05:42:51.237Z,75.92
2023-04-02T05:44:03.914Z,75.36
2023-04-02T05:45:05.526Z,74.96
2023-04-02T05:46:18.956Z,74.84
2023-04-02T05:47:25.370Z,74.79
2023-04-02T05:48:37.537Z,74.93
2023-04-02T05:49:39.293Z,74.90
2023-04-02T05:50:44.511Z,75.40
2023-04-02T05:51:50.754Z,75.93
2023-04-02T05:53:01.848Z,75.72
2023-04-02T05:54:07.508Z,75.79
2023-04-02T05:55:12.146Z,75.70
2023-04-02T05:56:29.568Z,75.75
2023-04-02T05:57:44.814Z,75.19
2023-04-02T05:59:02.682Z,75.62
2023-04-02T06:00:09.788Z,75.56
2023-04-02T06:01:33.105Z,75.88
2023-04-02T06:02:48.249Z,75.46
2023-04-02T06:04:06.442Z,74.35
2023-04-02T06:05:25.948Z,74.33
2023-04-02T06:06:33.481Z,74.42
2023-04-02T06:07:46.169Z,74.71
2023-04-02T06:08:58.632Z,74.50
2023-04-02T06:10:00.302Z,74.55
2023-04-02T06:11:06.976Z,73.74
2023-04-02T06:12:19.468Z,71.93
2023-04-02T06:13:21.308Z,71.60
2023-04-02T06:14:23.095Z,71.88
2023-04-02T06:15:24.965Z,72.69
2023-04-02T06:16:29.731Z,72.82
2023-04-02T06:17:43.358Z,72.12
2023-04-02T06:18:45.534Z,70.95
2023-04-02T06:19:47.976Z,70.00
2023-04-02T06:20:50.006Z,69.35
2023-04-02T06:21:57.832Z,69.16
2023-04-02T06:23:18.234Z,68.84
2023-04-02T06:24:24.164Z,68.12
2023-04-02T06:25:43.072Z,68.50
2023-04-02T06:26:53.358Z,67.64
2023-04-02T06:27:58.111Z,68.65
2023-04-02T06:29:08.905Z,68.57
2023-04-02T06:30:21.377Z,68.76
2023-04-02T06:31:49.332Z,69.11
2023-04-02T06:32:51.529Z,69.97
2023-04-02T06:33:53.638Z,69.52
2023-04-02T06:34:55.764Z,68.11
2023-04-02T06:35:59.896Z,67.49
2023-04-02T06:37:05.323Z,68.40
2023-04-02T06:38:16.227Z,66.85
2023-04-02T06:39:20.616Z,67.00
2023-04-02T06:40:24.960Z,66.39
2023-04-02T06:41:26.715Z,65.05
2023-04-02T06:42:37.240Z,64.86
2023-04-02T06:43:45.807Z,66.20
2023-04-02T06:44:47.900Z,67.06
2023-04-02T06:45:53.276Z,68.02
2023-04-02T06:46:59.921Z,67.67
2023-04-02T06:48:03.693Z,66.67
2023-04-02T06:49:17.674Z,65.60
2023-04-02T06:50:25.566Z,66.51
2023-04-02T06:51:28.971Z,66.64
2023-04-02T06:52:39.562Z,67.09
2023-04-02T06:53:47.358Z,67.13
2023-04-02T06:54:49.384Z,66.89
2023-04-02T06:56:03.015Z,66.05
2023-04-02T06:57:06.827Z,66.30
2023-04-02T06:58:09.913Z,66.13
2023-04-02T06:59:12.439Z,66.06
2023-04-02T07:00:48.105Z,64.63
2023-04-02T07:02:12.790Z,64.18
2023-04-02T07:03:24.137Z,64.51
2023-04-02T07:04:26.430Z,63.44
2023-04-02T07:05:28.230Z,61.39
2023-04-02T07:06:29.944Z,63.73
2023-04-02T07:07:31.668Z,62.46
2023-04-02T07:08:33.321Z,62.16
2023-04-02T07:09:35.036Z,62.64
2023-04-02T07:10:36.975Z,63.69
2023-04-02T07:11:39.175Z,62.95
2023-04-02T07:12:40.972Z,61.76
2023-04-02T07:13:43.520Z,61.58
2023-04-02T07:14:45.161Z,61.66
2023-04-02T07:15:49.302Z,62.02
2023-04-02T07:16:51.581Z,61.22
2023-04-02T07:17:53.312Z,59.63
2023-04-02T07:18:56.342Z,59.35
2023-04-02T07:19:58.091Z,59.74
2023-04-02T07:21:00.099Z,59.53
2023-04-02T07:22:01.809Z,60.79
2023-04-02T07:23:04.106Z,59.39
2023-04-02T07:24:06.091Z,57.83
2023-04-02T07:25:08.216Z,59.42
2023-04-02T07:26:15.596Z,59.74
2023-04-02T07:27:17.200Z,59.23
2023-04-02T07:28:20.829Z,56.74
2023-04-02T07:29:23.728Z,55.77
2023-04-02T07:30:25.470Z,57.27
2023-04-02T07:31:29.145Z,56.05
2023-04-02T07:32:30.970Z,57.84
2023-04-02T07:33:32.738Z,57.53
2023-04-02T07:34:34.418Z,57.26
2023-04-02T07:35:36.320Z,57.04
2023-04-02T07:36:38.221Z,57.79
2023-04-02T07:37:40.029Z,57.05
2023-04-02T07:38:41.684Z,55.07
2023-04-02T07:39:43.298Z,54.94
2023-04-02T07:40:45.055Z,55.24
2023-04-02T07:41:58.539Z,51.73
2023-04-02T07:43:00.351Z,50.36
2023-04-02T07:44:03.893Z,50.87
2023-04-02T07:45:06.238Z,51.54
2023-04-02T07:46:09.793Z,52.00
2023-04-02T07:47:11.536Z,51.25
2023-04-02T07:48:14.548Z,53.64
2023-04-02T07:49:16.208Z,53.68
2023-04-02T07:50:18.210Z,52.97
2023-04-02T07:51:22.845Z,50.59
2023-04-02T07:52:24.551Z,51.39
2023-04-02T07:53:32.840Z,52.57
2023-04-02T07:54:34.558Z,52.47
2023-04-02T07:55:36.516Z,52.84
2023-04-02T07:56:38.786Z,50.40
2023-04-02T07:57:47.630Z,51.14
2023-04-02T07:58:49.694Z,52.07
2023-04-02T07:59:51.371Z,50.58
2023-04-02T08:00:53.105Z,50.17
2023-04-02T08:01:54.842Z,50.61
2023-04-02T08:02:56.710Z,49.58
2023-04-02T08:03:58.458Z,49.95
2023-04-02T08:05:00.159Z,51.03
2023-04-02T08:06:01.795Z,51.25
2023-04-02T08:07:03.549Z,51.75
2023-04-02T08:08:05.600Z,49.35
2023-04-02T08:09:07.259Z,50.55
2023-04-02T08:10:11.470Z,50.61
2023-04-02T08:11:13.271Z,49.85
2023-04-02T08:12:15.484Z,48.92
2023-04-02T08:13:18.625Z,49.51
2023-04-02T08:14:20.327Z,50.08
2023-04-02T08:15:22.147Z,49.24
2023-04-02T08:16:23.840Z,48.20
2023-04-02T08:17:25.638Z,48.03
2023-04-02T08:18:27.957Z,48.36
2023-04-02T08:19:29.656Z,47.99
2023-04-02T08:20:31.450Z,48.89
2023-04-02T08:21:33.155Z,47.99
2023-04-02T08:22:34.866Z,48.06
2023-04-02T08:23:37.115Z,47.91
2023-04-02T08:24:38.828Z,47.82
2023-04-02T08:25:40.505Z,47.84
2023-04-02T08:26:43.931Z,48.42
2023-04-02T08:27:47.954Z,48.14
2023-04-02T08:28:49.596Z,48.94
2023-04-02T08:29:51.448Z,49.07
2023-04-02T08:30:53.313Z,49.07
2023-04-02T08:31:55.022Z,51.03
2023-04-02T08:32:56.761Z,48.82
2023-04-02T08:33:58.486Z,48.24
2023-04-02T08:35:00.189Z,48.50
2023-04-02T08:36:01.873Z,48.95
2023-04-02T08:37:03.480Z,47.63
2023-04-02T08:38:05.279Z,47.82
2023-04-02T08:39:08.428Z,46.69
2023-04-02T08:40:43.751Z,46.88
2023-04-02T08:41:55.796Z,46.67
2023-04-02T08:43:35.310Z,46.92
2023-04-02T08:44:55.061Z,45.68
2023-04-02T08:45:59.691Z,45.48
2023-04-02T08:47:05.644Z,46.88
2023-04-02T08:48:11.008Z,47.33
2023-04-02T08:49:19.818Z,46.59
2023-04-02T08:50:36.624Z,45.16
2023-04-02T08:51:38.419Z,44.95
2023-04-02T08:52:40.138Z,44.85
2023-04-02T08:53:41.929Z,45.20
2023-04-02T08:54:43.856Z,44.38
2023-04-02T08:55:45.501Z,43.99
2023-04-02T08:56:59.463Z,47.90
2023-04-02T08:58:14.355Z,48.44
2023-04-02T08:59:34.463Z,45.90
2023-04-02T09:00:44.187Z,44.41
2023-04-02T09:02:14.712Z,45.36
2023-04-02T09:03:16.363Z,44.86
2023-04-02T09:04:23.625Z,44.37
2023-04-02T09:05:31.781Z,46.07
2023-04-02T09:06:34.329Z,44.31
2023-04-02T09:07:36.057Z,43.61
2023-04-02T09:08:37.824Z,45.19
2023-04-02T09:09:39.714Z,44.47
2023-04-02T09:11:03.558Z,43.52
2023-04-02T09:12:14.199Z,44.04
2023-04-02T09:13:36.884Z,46.99
2023-04-02T09:14:57.926Z,46.16
2023-04-02T09:16:11.726Z,44.32
2023-04-02T09:17:24.719Z,44.96
2023-04-02T09:18:30.744Z,43.94
2023-04-02T09:19:40.156Z,44.29
2023-04-02T09:20:41.919Z,43.40
2023-04-02T09:22:24.206Z,44.63
2023-04-02T09:23:27.379Z,45.28
2023-04-02T09:24:29.096Z,45.83
2023-04-02T09:25:31.778Z,46.06
2023-04-02T09:26:34.009Z,44.24
2023-04-02T09:27:36.577Z,42.74
2023-04-02T09:28:38.828Z,43.29
2023-04-02T09:29:45.543Z,43.56
2023-04-02T09:31:25.569Z,42.29
2023-04-02T09:32:48.462Z,40.05
2023-04-02T09:33:51.792Z,41.83
2023-04-02T09:35:15.129Z,41.39
2023-04-02T09:36:39.198Z,41.10
2023-04-02T09:37:40.893Z,39.11
2023-04-02T09:38:59.660Z,40.86
2023-04-02T09:40:17.822Z,38.39
2023-04-02T09:41:20.762Z,39.21
2023-04-02T09:42:34.079Z,40.42
2023-04-02T09:43:38.507Z,41.03
2023-04-02T09:44:40.187Z,42.90
2023-04-02T09:45:44.231Z,39.23
2023-04-02T09:47:07.211Z,40.89
2023-04-02T09:48:38.263Z,41.90
2023-04-02T09:49:40.345Z,40.39
2023-04-02T09:50:42.046Z,42.00
2023-04-02T09:51:43.973Z,42.09
2023-04-02T09:52:45.689Z,42.42
2023-04-02T09:53:50.382Z,43.09
2023-04-02T09:55:16.689Z,43.72
2023-04-02T09:56:24.584Z,45.21
2023-04-02T09:57:26.285Z,45.15
2023-04-02T09:58:27.945Z,45.72
2023-04-02T09:59:29.965Z,45.04
2023-04-02T10:00:32.756Z,44.23
2023-04-02T10:01:41.218Z,44.28
2023-04-02T10:02:44.710Z,45.11
2023-04-02T10:03:46.427Z,45.76
2023-04-02T10:04:49.956Z,43.34
2023-04-02T10:06:10.761Z,44.71
2023-04-02T10:07:33.356Z,44.23
2023-04-02T10:08:36.031Z,43.45
2023-04-02T10:09:38.602Z,43.71
2023-04-02T10:10:44.860Z,45.37
2023-04-02T10:11:47.076Z,45.45
2023-04-02T10:13:01.704Z,45.25
2023-04-02T10:14:24.314Z,45.48
2023-04-02T10:15:33.936Z,44.02
2023-04-02T10:16:56.152Z,45.40
2023-04-02T10:18:06.652Z,42.57
2023-04-02T10:19:42.101Z,43.31
2023-04-02T10:20:51.271Z,39.41
2023-04-02T10:21:55.613Z,41.21
2023-04-02T10:22:57.320Z,41.12
2023-04-02T10:23:59.060Z,39.49
2023-04-02T10:25:01.789Z,37.99
2023-04-02T10:26:20.144Z,36.60
2023-04-02T10:27:21.760Z,37.34
2023-04-02T10:28:41.765Z,38.14
2023-04-02T10:30:05.984Z,38.29
2023-04-02T10:31:11.504Z,38.02
2023-04-02T10:32:24.981Z,38.45
2023-04-02T10:33:50.578Z,37.41
2023-04-02T10:34:52.148Z,39.45
2023-04-02T10:36:12.086Z,38.36
2023-04-02T10:37:38.810Z,36.77
2023-04-02T10:38:58.672Z,35.47
2023-04-02T10:40:09.021Z,35.42
2023-04-02T10:41:19.606Z,36.77
2023-04-02T10:42:39.951Z,37.51
2023-04-02T10:43:50.653Z,36.14
2023-04-02T10:45:00.031Z,38.27
2023-04-02T10:46:34.090Z,37.28
2023-04-02T10:47:48.609Z,34.54
2023-04-02T10:48:59.233Z,33.09
2023-04-02T10:50:00.867Z,34.15
2023-04-02T10:51:08.152Z,35.29
2023-04-02T10:52:24.109Z,35.62
2023-04-02T10:53:56.842Z,34.54
2023-04-02T10:55:05.035Z,34.50
2023-04-02T10:56:11.859Z,35.90
2023-04-02T10:57:40.723Z,37.79
2023-04-02T10:59:10.590Z,37.28
2023-04-02T11:00:12.515Z,33.58
2023-04-02T11:01:25.654Z,33.35
2023-04-02T11:02:51.772Z,31.89
2023-04-02T11:03:59.820Z,31.77
2023-04-02T11:05:11.046Z,33.02
2023-04-02T11:06:30.600Z,32.35
2023-04-02T11:07:41.519Z,33.35
2023-04-02T11:08:46.943Z,32.45
2023-04-02T11:09:52.213Z,28.71
2023-04-02T11:11:04.652Z,29.27
2023-04-02T11:12:11.160Z,30.55
2023-04-02T11:13:25.798Z,30.45
2023-04-02T11:14:30.487Z,31.89
2023-04-02T11:15:32.571Z,31.55
2023-04-02T11:16:36.098Z,32.01
2023-04-02T11:17:40.322Z,33.66
2023-04-02T11:18:43.370Z,30.87
2023-04-02T11:19:45.160Z,30.61
2023-04-02T11:20:59.315Z,30.99
2023-04-02T11:22:33.526Z,34.21
2023-04-02T11:23:40.059Z,32.21
2023-04-02T11:24:47.686Z,32.12
2023-04-02T11:25:49.498Z,33.52
2023-04-02T11:26:52.807Z,34.29
2023-04-02T11:27:54.559Z,34.15
2023-04-02T11:29:12.162Z,31.31
2023-04-02T11:30:16.796Z,33.77
2023-04-02T11:31:21.675Z,32.50
2023-04-02T11:32:23.461Z,33.08
2023-04-02T11:33:43.388Z,33.35
2023-04-02T11:34:51.370Z,33.21
2023-04-02T11:35:58.386Z,32.50
2023-04-02T11:37:01.744Z,34.69
2023-04-02T11:38:12.468Z,33.44
2023-04-02T11:39:56.899Z,34.47
2023-04-02T11:40:59.719Z,35.04
2023-04-02T11:42:05.481Z,34.69
2023-04-02T11:43:34.812Z,33.43
2023-04-02T11:44:36.628Z,32.27
2023-04-02T11:45:52.871Z,32.12
2023-04-02T11:47:18.554Z,30.55
2023-04-02T11:48:20.407Z,29.03
2023-04-02T11:49:39.955Z,31.88
2023-04-02T11:50:44.922Z,32.19
2023-04-02T11:51:52.391Z,30.47
2023-04-02T11:53:12.063Z,30.61
2023-04-02T11:54:28.410Z,28.77
2023-04-02T11:55:35.016Z,31.26
2023-04-02T11:56:57.394Z,30.74
2023-04-02T11:58:20.704Z,29.38
2023-04-02T11:59:40.264Z,31.51
2023-04-02T12:01:00.090Z,31.81
2023-04-02T12:02:21.714Z,32.32
2023-04-02T12:04:02.492Z,32.02
2023-04-02T12:05:32.611Z,31.84
2023-04-02T12:06:43.632Z,32.28
2023-04-02T12:08:01.398Z,32.62
2023-04-02T12:09:24.076Z,30.00
2023-04-02T12:10:33.416Z,31.50
2023-04-02T12:11:38.150Z,33.41
2023-04-02T12:12:40.041Z,33.56
2023-04-02T12:13:41.817Z,31.11
2023-04-02T12:14:48.602Z,32.39
2023-04-02T12:15:52.684Z,32.50
2023-04-02T12:16:54.787Z,31.99
2023-04-02T12:18:11.718Z,32.52
2023-04-02T12:19:16.660Z,31.93
2023-04-02T12:20:18.330Z,32.78
2023-04-02T12:21:23.888Z,31.36
2023-04-02T12:22:30.347Z,32.72
2023-04-02T12:23:35.539Z,30.89
2023-04-02T12:24:37.619Z,30.02
2023-04-02T12:25:39.613Z,30.23
2023-04-02T12:26:41.546Z,30.40
2023-04-02T12:27:43.200Z,30.85
2023-04-02T12:28:45.194Z,27.94
2023-04-02T12:29:47.119Z,29.85
2023-04-02T12:30:50.761Z,30.75
2023-04-02T12:31:54.691Z,30.49
2023-04-02T12:32:56.463Z,30.21
2023-04-02T12:33:58.325Z,30.74
2023-04-02T12:35:04.428Z,28.02
2023-04-02T12:36:26.408Z,27.16
2023-04-02T12:37:29.958Z,29.01
2023-04-02T12:38:35.418Z,27.59
2023-04-02T12:39:37.175Z,26.46
2023-04-02T12:40:38.896Z,26.79
2023-04-02T12:41:40.675Z,27.37
2023-04-02T12:43:43.904Z,28.52
2023-04-02T12:44:49.316Z,29.21
2023-04-02T12:46:08.543Z,30.24
2023-04-02T12:47:13.320Z,30.72
2023-04-02T12:48:15.293Z,31.30
2023-04-02T12:49:40.804Z,30.99
2023-04-02T12:50:42.724Z,30.31
2023-04-02T12:51:44.867Z,29.47
2023-04-02T12:52:50.539Z,29.97
2023-04-02T12:53:53.456Z,30.64
2023-04-02T12:55:00.813Z,28.92
2023-04-02T12:56:04.082Z,29.49
2023-04-02T12:57:27.525Z,29.58
2023-04-02T12:58:36.900Z,28.08
2023-04-02T12:59:38.878Z,28.69
2023-04-02T13:00:40.750Z,28.69
2023-04-02T13:01:56.327Z,27.14
2023-04-02T13:03:16.891Z,26.93
2023-04-02T13:04:18.922Z,28.22
2023-04-02T13:05:44.358Z,27.90
2023-04-02T13:06:52.278Z,25.28
2023-04-02T13:07:54.091Z,25.48
2023-04-02T13:08:56.093Z,27.13
2023-04-02T13:10:00.844Z,28.17
2023-04-02T13:11:04.903Z,29.14
2023-04-02T13:12:06.931Z,28.76
2023-04-02T13:13:16.898Z,28.91
2023-04-02T13:14:20.783Z,29.19
2023-04-02T13:15:27.198Z,27.86
2023-04-02T13:16:35.614Z,29.11
2023-04-02T13:17:42.213Z,29.39
2023-04-02T13:18:47.283Z,29.46
2023-04-02T13:19:49.032Z,28.23
2023-04-02T13:20:59.115Z,28.47
2023-04-02T13:22:03.197Z,29.09
2023-04-02T13:23:23.299Z,26.85
2023-04-02T13:24:30.781Z,26.02
2023-04-02T13:25:36.573Z,26.16
2023-04-02T13:26:38.599Z,26.28
2023-04-02T13:27:40.287Z,26.81
2023-04-02T13:28:42.151Z,27.60
2023-04-02T13:29:44.084Z,29.03
2023-04-02T13:30:46.251Z,28.58
2023-04-02T13:31:48.702Z,30.19
2023-04-02T13:32:50.715Z,27.76
2023-04-02T13:33:52.461Z,28.64
2023-04-02T13:34:54.179Z,30.39
2023-04-02T13:35:55.932Z,29.31
2023-04-02T13:36:58.855Z,27.73
2023-04-02T13:38:00.755Z,27.66
2023-04-02T13:39:02.507Z,26.12
2023-04-02T13:40:04.648Z,27.45
2023-04-02T13:41:10.522Z,29.35
2023-04-02T13:42:12.419Z,27.69
2023-04-02T13:43:19.550Z,29.11
2023-04-02T13:44:23.254Z,26.06
2023-04-02T13:45:29.147Z,27.78
2023-04-02T13:46:35.322Z,28.04
2023-04-02T13:47:38.590Z,27.38
2023-04-02T13:48:42.173Z,27.83
2023-04-02T13:49:43.892Z,25.93
2023-04-02T13:50:45.723Z,26.71
2023-04-02T13:51:52.800Z,28.37
2023-04-02T13:52:58.066Z,27.46
2023-04-02T13:53:59.824Z,28.12
2023-04-02T13:55:01.601Z,26.98
2023-04-02T13:56:03.362Z,27.32
2023-04-02T13:57:05.266Z,27.08
2023-04-02T13:58:07.114Z,25.29
2023-04-02T13:59:08.988Z,27.83
2023-04-02T14:00:11.782Z,28.75
2023-04-02T14:01:13.608Z,28.54
2023-04-02T14:02:24.800Z,29.21
2023-04-02T14:03:26.637Z,29.35
2023-04-02T14:04:32.416Z,28.57
2023-04-02T14:07:06.120Z,28.89
2023-04-02T14:08:11.410Z,27.08
2023-04-02T14:09:33.712Z,27.79
2023-04-02T14:10:53.201Z,27.00
2023-04-02T14:12:06.654Z,27.02
2023-04-02T14:13:31.186Z,27.56
2023-04-02T14:15:04.969Z,27.13
2023-04-02T14:16:35.705Z,27.29
2023-04-02T14:17:55.744Z,27.12
2023-04-02T14:19:34.960Z,26.81
2023-04-02T14:21:05.331Z,27.34
2023-04-02T14:22:28.476Z,27.18
2023-04-02T14:23:50.438Z,27.66
2023-04-02T14:25:16.076Z,27.52
2023-04-02T14:26:41.536Z,27.41
2023-04-02T14:27:53.287Z,25.87
2023-04-02T14:29:08.571Z,25.18
2023-04-02T14:30:21.402Z,25.86
2023-04-02T14:31:23.070Z,25.94
2023-04-02T14:32:24.731Z,26.08
2023-04-02T14:33:49.427Z,27.23
2023-04-02T14:35:09.350Z,26.67
2023-04-02T14:36:19.730Z,27.34
2023-04-02T14:37:50.004Z,26.75
2023-04-02T14:39:25.488Z,25.78
2023-04-02T14:40:44.707Z,25.69
2023-04-02T14:41:58.111Z,26.50
2023-04-02T14:43:11.050Z,26.71
2023-04-02T14:44:13.173Z,27.60
2023-04-02T14:45:42.795Z,27.68
2023-04-02T14:46:44.509Z,27.33
2023-04-02T14:47:55.704Z,26.70
2023-04-02T14:49:19.090Z,24.09
2023-04-02T14:50:28.496Z,25.80
2023-04-02T14:51:45.000Z,26.19
2023-04-02T14:52:51.854Z,26.04
2023-04-02T14:53:59.970Z,25.74
2023-04-02T14:55:21.886Z,26.66
2023-04-02T14:56:24.312Z,27.99
2023-04-02T14:57:40.557Z,27.56
2023-04-02T14:58:46.552Z,27.76